Time;durP1;ratioP1;P1;durP2;ratioP2;P2;SDS_P1;SDS_P2;PMS_P1;PMS_P2;Temp;Humidity;BMP_temperature;BMP_pressure;BME280_temperature;BME280_humidity;BME280_pressure;Samples;Min_cycle;Max_cycle;Signal;HPM_P1;HPM_P2
2023/04/11 00:02:18;;;;;;;5.72;1.67;;;12.50;70.70;;;;;;5035104;28;20029;-64
2023/04/11 00:04:44;;;;;;;8.35;1.80;;;12.40;70.70;;;;;;5041889;28;20180;-65
2023/04/11 00:07:09;;;;;;;8.05;2.40;;;12.40;70.80;;;;;;5045599;28;20033;-64
2023/04/11 00:09:35;;;;;;;7.30;2.20;;;12.40;71.00;;;;;;5048351;28;20029;-65
2023/04/11 00:12:04;;;;;;;9.20;2.33;;;12.50;71.20;;;;;;5043747;28;20370;-64
2023/04/11 00:14:33;;;;;;;9.07;2.42;;;12.50;71.40;;;;;;5046522;28;20445;-65
2023/04/11 00:17:00;;;;;;;11.68;3.88;;;12.50;71.70;;;;;;5036440;28;20354;-65
2023/04/11 00:19:27;;;;;;;14.85;3.95;;;12.50;71.90;;;;;;5049689;28;20035;-64
2023/04/11 00:21:56;;;;;;;13.57;3.55;;;12.60;72.10;;;;;;5044382;28;20036;-65
2023/04/11 00:24:22;;;;;;;18.02;4.55;;;12.50;72.20;;;;;;5033246;28;20048;-65
2023/04/11 00:26:48;;;;;;;16.98;4.45;;;12.60;72.30;;;;;;5030432;28;20029;-65
2023/04/11 00:29:14;;;;;;;13.68;4.47;;;12.60;72.40;;;;;;5033904;28;20119;-65
2023/04/11 00:31:40;;;;;;;17.38;4.53;;;12.60;72.50;;;;;;5033484;28;20443;-65
2023/04/11 00:34:05;;;;;;;17.15;4.15;;;12.70;72.60;;;;;;5032187;28;20080;-65
2023/04/11 00:36:31;;;;;;;18.58;4.38;;;12.70;72.60;;;;;;5032954;28;20029;-65
2023/04/11 00:38:57;;;;;;;13.95;3.45;;;12.70;72.60;;;;;;5034176;28;20083;-65
2023/04/11 00:41:23;;;;;;;14.43;3.88;;;12.70;72.70;;;;;;5032260;28;20025;-65
2023/04/11 00:43:49;;;;;;;16.10;3.70;;;12.70;72.70;;;;;;5032865;28;20075;-65
2023/04/11 00:46:16;;;;;;;15.55;3.35;;;12.70;72.70;;;;;;5032801;28;20038;-65
2023/04/11 00:48:43;;;;;;;17.08;4.25;;;12.70;73.40;;;;;;5034497;28;20133;-65
2023/04/11 00:51:09;;;;;;;17.27;3.70;;;12.70;72.70;;;;;;5033162;28;20052;-65
2023/04/11 00:53:36;;;;;;;13.70;3.92;;;12.70;72.70;;;;;;5016195;28;20029;-64
2023/04/11 00:56:02;;;;;;;16.08;4.05;;;12.70;72.70;;;;;;5014860;28;20021;-65
2023/04/11 00:58:28;;;;;;;17.83;4.55;;;12.70;72.70;;;;;;5032727;28;20145;-64
2023/04/11 01:00:54;;;;;;;13.68;4.15;;;12.60;72.70;;;;;;5033587;28;20474;-64
2023/04/11 01:03:21;;;;;;;15.88;4.25;;;12.60;72.80;;;;;;5034429;28;20358;-64
2023/04/11 01:05:48;;;;;;;19.17;4.47;;;12.60;72.80;;;;;;5026782;28;20036;-64
2023/04/11 01:08:15;;;;;;;14.38;4.45;;;12.50;72.90;;;;;;5032233;28;20128;-65
2023/04/11 01:10:41;;;;;;;20.42;4.35;;;12.50;73.00;;;;;;5032273;28;20029;-65
2023/04/11 01:13:08;;;;;;;19.13;4.15;;;12.50;73.00;;;;;;5034318;28;20088;-65
2023/04/11 01:15:34;;;;;;;16.50;3.42;;;12.50;73.10;;;;;;5013517;28;20041;-64
2023/04/11 01:18:00;;;;;;;20.38;3.95;;;12.50;73.10;;;;;;5033724;28;20029;-64
2023/04/11 01:20:28;;;;;;;20.02;5.05;;;12.40;73.10;;;;;;5016230;28;20242;-64
2023/04/11 01:22:56;;;;;;;17.73;4.05;;;12.40;73.10;;;;;;5033372;28;20444;-64
2023/04/11 01:25:23;;;;;;;16.00;4.30;;;12.40;73.10;;;;;;5031295;28;20025;-64
2023/04/11 01:27:49;;;;;;;15.70;3.53;;;12.40;73.20;;;;;;5014590;28;20451;-64
2023/04/11 01:30:15;;;;;;;16.02;3.58;;;12.40;73.30;;;;;;5033015;28;20033;-64
2023/04/11 01:32:41;;;;;;;15.30;3.58;;;12.40;73.30;;;;;;5031692;28;20029;-64
2023/04/11 01:35:09;;;;;;;14.77;4.05;;;12.40;73.30;;;;;;5031439;28;20031;-64
2023/04/11 01:37:34;;;;;;;16.85;4.45;;;12.40;73.20;;;;;;5028084;28;20044;-64
2023/04/11 01:40:01;;;;;;;13.15;3.45;;;12.40;73.20;;;;;;5033554;28;20026;-64
2023/04/11 01:42:28;;;;;;;14.38;3.78;;;12.40;73.20;;;;;;5032518;28;20037;-64
2023/04/11 01:44:55;;;;;;;15.90;3.72;;;12.40;73.20;;;;;;5031351;28;20363;-64
2023/04/11 01:47:21;;;;;;;14.82;3.80;;;12.30;73.20;;;;;;5031507;28;20051;-64
2023/04/11 01:49:49;;;;;;;17.63;4.22;;;12.30;73.20;;;;;;5031466;28;20386;-64
2023/04/11 01:52:15;;;;;;;18.42;4.70;;;12.30;73.20;;;;;;5032679;28;20037;-64
2023/04/11 01:54:41;;;;;;;14.32;3.22;;;12.30;73.30;;;;;;5031424;28;20047;-64
2023/04/11 01:57:06;;;;;;;16.15;3.33;;;12.30;73.30;;;;;;5030504;28;20461;-64
2023/04/11 01:59:32;;;;;;;10.93;3.22;;;12.30;73.30;;;;;;5031881;28;20053;-64
2023/04/11 02:01:59;;;;;;;18.95;4.18;;;12.30;73.30;;;;;;5030793;28;20021;-64
2023/04/11 02:04:25;;;;;;;14.63;3.55;;;12.20;73.90;;;;;;5031445;28;20099;-64
2023/04/11 02:06:51;;;;;;;14.20;4.13;;;12.30;73.30;;;;;;5031729;28;20022;-64
2023/04/11 02:09:18;;;;;;;16.02;4.03;;;12.20;73.30;;;;;;5031232;28;20343;-64
2023/04/11 02:11:45;;;;;;;15.73;4.40;;;12.20;73.40;;;;;;5030870;28;20029;-64
2023/04/11 02:14:13;;;;;;;18.42;3.80;;;12.10;73.40;;;;;;5032242;28;20026;-64
2023/04/11 02:16:53;;;;;;;16.77;4.18;;;12.10;73.40;;;;;;5012917;28;20021;-64
2023/04/11 02:19:20;;;;;;;17.10;4.13;;;12.20;73.30;;;;;;5015642;28;20033;-65
2023/04/11 02:21:46;;;;;;;15.20;3.80;;;12.10;73.40;;;;;;5014669;28;20026;-64
2023/04/11 02:24:12;;;;;;;17.05;4.45;;;12.10;73.50;;;;;;5033011;28;20033;-64
2023/04/11 02:26:41;;;;;;;16.40;3.63;;;12.10;73.40;;;;;;5028253;28;20354;-64
2023/04/11 02:29:07;;;;;;;15.77;3.65;;;12.00;73.40;;;;;;5029694;28;20021;-64
2023/04/11 02:31:33;;;;;;;21.15;4.68;;;12.00;73.40;;;;;;5031909;28;20030;-64
2023/04/11 02:33:59;;;;;;;16.80;3.50;;;12.00;73.50;;;;;;5032055;28;20304;-64
2023/04/11 02:36:27;;;;;;;24.50;4.13;;;12.00;73.50;;;;;;5030348;28;20025;-64
2023/04/11 02:38:53;;;;;;;15.52;3.10;;;12.00;73.50;;;;;;5031686;28;20026;-64
2023/04/11 02:41:19;;;;;;;15.50;4.20;;;12.00;73.40;;;;;;5033308;28;20037;-64
2023/04/11 02:43:45;;;;;;;12.20;3.30;;;12.00;73.40;;;;;;5031423;28;20447;-64
2023/04/11 02:46:10;;;;;;;17.95;3.63;;;12.00;73.40;;;;;;5032019;28;20351;-64
2023/04/11 02:48:36;;;;;;;11.48;3.05;;;11.90;73.20;;;;;;5030245;28;20029;-64
2023/04/11 02:51:03;;;;;;;10.57;2.50;;;12.00;73.10;;;;;;5015772;28;20029;-64
2023/04/11 02:53:29;;;;;;;7.93;1.92;;;11.90;72.90;;;;;;5014696;28;20372;-64
2023/04/11 02:55:55;;;;;;;8.38;1.58;;;11.90;72.60;;;;;;5027024;28;20045;-64
2023/04/11 02:58:24;;;;;;;10.63;1.98;;;11.90;72.40;;;;;;5027981;28;20361;-64
2023/04/11 03:00:51;;;;;;;9.40;2.45;;;11.80;72.10;;;;;;5031270;28;20028;-63
2023/04/11 03:03:17;;;;;;;10.45;2.30;;;11.80;72.00;;;;;;5031479;28;20419;-64
2023/04/11 03:05:46;;;;;;;7.15;2.00;;;11.90;72.00;;;;;;5032034;28;20038;-64
2023/04/11 03:08:13;;;;;;;9.25;2.33;;;11.90;72.10;;;;;;5031831;28;20021;-64
2023/04/11 03:10:46;;;;;;;12.32;3.03;;;11.90;72.20;;;;;;5033813;28;20026;-64
2023/04/11 03:13:12;;;;;;;13.10;3.00;;;11.90;72.30;;;;;;5030009;28;20033;-64
2023/04/11 03:15:37;;;;;;;13.77;3.22;;;11.80;72.30;;;;;;5037536;28;20335;-64
2023/04/11 03:18:06;;;;;;;11.80;2.88;;;11.90;72.40;;;;;;5009037;28;20040;-64
2023/04/11 03:20:34;;;;;;;13.02;2.35;;;11.80;72.50;;;;;;5032072;28;20040;-64
2023/04/11 03:23:00;;;;;;;9.05;2.55;;;11.80;72.50;;;;;;5015253;28;20021;-64
2023/04/11 03:25:27;;;;;;;12.32;3.05;;;11.90;72.50;;;;;;5008091;28;20025;-64
2023/04/11 03:27:53;;;;;;;17.35;3.72;;;11.90;72.60;;;;;;5016216;28;20021;-64
2023/04/11 03:30:19;;;;;;;13.90;3.53;;;11.80;72.70;;;;;;5027349;28;20103;-64
2023/04/11 03:32:46;;;;;;;14.35;2.83;;;11.80;72.90;;;;;;5019139;28;20038;-64
2023/04/11 03:35:13;;;;;;;13.40;3.25;;;11.90;73.10;;;;;;5001719;28;20344;-64
2023/04/11 03:37:43;;;;;;;13.18;2.75;;;11.90;73.10;;;;;;5020449;28;20026;-64
2023/04/11 03:40:09;;;;;;;13.13;2.95;;;11.80;73.10;;;;;;5022702;28;20374;-64
2023/04/11 03:42:38;;;;;;;16.10;3.05;;;11.80;73.10;;;;;;5020618;28;20402;-64
2023/04/11 03:45:06;;;;;;;14.90;3.65;;;11.80;73.10;;;;;;5019651;28;20423;-64
2023/04/11 03:47:33;;;;;;;16.25;3.42;;;11.80;73.20;;;;;;5004396;28;20030;-64
2023/04/11 03:50:00;;;;;;;15.32;3.00;;;11.80;73.20;;;;;;5019320;28;20524;-64
2023/04/11 03:52:26;;;;;;;12.27;2.53;;;11.80;73.20;;;;;;5008825;28;20045;-64
2023/04/11 03:54:52;;;;;;;14.70;2.95;;;11.70;73.20;;;;;;5018523;28;20032;-64
2023/04/11 03:57:18;;;;;;;11.25;3.08;;;11.70;73.20;;;;;;5026064;28;20040;-64
2023/04/11 03:59:46;;;;;;;16.10;3.45;;;11.70;73.20;;;;;;5014319;28;20042;-64
2023/04/11 04:02:14;;;;;;;13.65;2.67;;;11.70;73.20;;;;;;5026762;28;20034;-64
2023/04/11 04:04:45;;;;;;;11.80;2.70;;;11.70;73.20;;;;;;5018551;28;20052;-64
2023/04/11 04:07:22;;;;;;;12.35;2.90;;;11.70;73.20;;;;;;5032968;28;20040;-64
2023/04/11 04:09:51;;;;;;;8.52;1.77;;;11.70;73.00;;;;;;5013389;28;20053;-64
2023/04/11 04:12:21;;;;;;;10.13;2.55;;;11.60;72.80;;;;;;5024594;28;20030;-64
2023/04/11 04:15:06;;;;;;;12.02;2.50;;;11.70;72.90;;;;;;5019956;28;20060;-64
2023/04/11 04:17:32;;;;;;;9.85;2.22;;;11.60;72.70;;;;;;5020690;28;20036;-64
2023/04/11 04:19:59;;;;;;;15.35;2.50;;;11.70;72.60;;;;;;5016060;28;20114;-64
2023/04/11 04:22:25;;;;;;;10.20;2.00;;;11.70;72.50;;;;;;5009653;28;20526;-64
2023/04/11 04:24:56;;;;;;;6.65;1.70;;;11.70;72.40;;;;;;5020145;28;20026;-64
2023/04/11 04:27:25;;;;;;;8.85;1.83;;;11.70;72.20;;;;;;5021570;28;20021;-64
2023/04/11 04:29:52;;;;;;;7.72;2.33;;;11.70;72.00;;;;;;4997438;28;20538;-64
2023/04/11 04:32:23;;;;;;;7.88;1.58;;;11.70;71.90;;;;;;5021126;28;20056;-64
2023/04/11 04:34:54;;;;;;;;;;;11.70;71.80;;;;;;5018672;28;20033;-64
2023/04/11 04:37:38;;;;;;;6.68;1.90;;;11.70;71.80;;;;;;5027824;28;19916;-64
2023/04/11 04:40:19;;;;;;;6.60;1.53;;;11.60;71.80;;;;;;5032633;28;20049;-64
2023/04/11 04:43:00;;;;;;;8.85;1.83;;;11.60;71.70;;;;;;5016191;28;20030;-64
2023/04/11 04:45:45;;;;;;;13.75;2.10;;;11.70;71.60;;;;;;5032836;28;20029;-64
2023/04/11 04:48:16;;;;;;;9.73;1.95;;;11.60;71.50;;;;;;5030415;28;20037;-63
2023/04/11 04:50:42;;;;;;;8.68;1.90;;;11.60;71.40;;;;;;5032513;28;20120;-64
2023/04/11 04:53:08;;;;;;;7.93;1.90;;;11.60;71.30;;;;;;5029226;28;20045;-64
2023/04/11 04:55:37;;;;;;;8.20;2.05;;;11.60;71.30;;;;;;5015382;28;20095;-64
2023/04/11 04:58:03;;;;;;;11.13;2.10;;;11.60;71.30;;;;;;5033041;28;20439;-65
2023/04/11 05:00:29;;;;;;;6.95;2.00;;;11.60;71.20;;;;;;5030068;28;20052;-64
2023/04/11 05:02:59;;;;;;;10.40;2.40;;;11.60;71.10;;;;;;5029073;28;20013;-65
2023/04/11 05:05:29;;;;;;;9.57;1.75;;;11.60;71.10;;;;;;5011636;28;20041;-64
2023/04/11 05:07:55;;;;;;;6.18;1.75;;;11.60;71.10;;;;;;5031999;28;20419;-65
2023/04/11 05:10:21;;;;;;;10.55;1.80;;;11.60;71.00;;;;;;5033255;28;20025;-68
2023/04/11 05:12:48;;;;;;;8.07;1.85;;;11.60;71.00;;;;;;5031090;28;20037;-65
2023/04/11 05:15:14;;;;;;;9.88;2.30;;;11.60;70.80;;;;;;5030198;28;20030;-66
2023/04/11 05:17:41;;;;;;;8.57;2.22;;;11.60;70.70;;;;;;5033034;28;20069;-65
2023/04/11 05:20:08;;;;;;;6.00;1.65;;;11.60;70.60;;;;;;5032401;28;20425;-66
2023/04/11 05:22:36;;;;;;;7.93;1.70;;;11.60;70.70;;;;;;5033024;28;20044;-65
2023/04/11 05:25:03;;;;;;;13.93;2.22;;;11.60;70.60;;;;;;5014924;28;20377;-65
2023/04/11 05:27:29;;;;;;;7.32;1.50;;;11.50;70.40;;;;;;5032260;28;20167;-65
2023/04/11 05:29:55;;;;;;;7.20;1.48;;;11.50;70.30;;;;;;5030662;28;20060;-65
2023/04/11 05:32:21;;;;;;;9.48;2.00;;;11.50;70.20;;;;;;5016653;28;20026;-65
2023/04/11 05:34:52;;;;;;;7.40;1.48;;;11.50;70.00;;;;;;5014621;28;20091;-65
2023/04/11 05:37:23;;;;;;;6.30;1.55;;;11.50;69.90;;;;;;5039025;28;20109;-65
2023/04/11 05:39:51;;;;;;;7.05;1.65;;;11.50;69.70;;;;;;5031514;28;20025;-65
2023/04/11 05:42:17;;;;;;;11.75;2.00;;;11.50;69.60;;;;;;5037584;28;20035;-65
2023/04/11 05:44:43;;;;;;;8.27;1.50;;;11.60;69.50;;;;;;5014727;28;20121;-65
2023/04/11 05:47:10;;;;;;;10.57;1.98;;;11.50;69.20;;;;;;5033230;28;20408;-65
2023/04/11 05:49:36;;;;;;;7.68;1.83;;;11.60;69.10;;;;;;5021845;28;20057;-66
2023/04/11 05:52:02;;;;;;;9.38;1.50;;;11.70;68.70;;;;;;5048323;28;20067;-65
2023/04/11 05:54:35;;;;;;;7.38;1.70;;;11.90;68.20;;;;;;5026682;28;20111;-65
2023/04/11 05:57:02;;;;;;;7.18;1.90;;;12.00;67.70;;;;;;5037253;28;20025;-66
2023/04/11 05:59:31;;;;;;;6.53;1.65;;;12.00;67.70;;;;;;5046423;28;20090;-66
2023/04/11 06:01:57;;;;;;;8.68;1.63;;;12.20;67.40;;;;;;5045928;28;20525;-65
2023/04/11 06:04:24;;;;;;;6.57;1.60;;;12.30;66.90;;;;;;5019892;28;20025;-66
2023/04/11 06:06:50;;;;;;;7.88;1.98;;;12.50;66.50;;;;;;5037615;28;20102;-65
2023/04/11 06:09:16;;;;;;;8.82;1.70;;;12.60;66.10;;;;;;5026342;28;20088;-63
2023/04/11 06:11:42;;;;;;;7.65;1.85;;;12.70;65.80;;;;;;5026425;28;20343;-64
2023/04/11 06:14:08;;;;;;;10.25;2.17;;;12.80;65.40;;;;;;5031666;28;20060;-64
2023/04/11 06:16:35;;;;;;;7.05;1.65;;;12.80;65.20;;;;;;5028799;28;20051;-64
2023/04/11 06:19:03;;;;;;;10.30;1.77;;;13.20;64.70;;;;;;5030492;28;20610;-64
2023/04/11 06:21:31;;;;;;;8.15;1.58;;;13.70;63.50;;;;;;5030552;28;20039;-66
2023/04/11 06:24:04;;;;;;;7.53;1.55;;;14.30;62.30;;;;;;5013947;28;20024;-65
2023/04/11 06:26:29;;;;;;;5.82;1.33;;;14.90;60.80;;;;;;5034011;28;20064;-65
2023/04/11 06:28:55;;;;;;;8.55;1.85;;;15.60;59.70;;;;;;5019829;28;20052;-64
2023/04/11 06:31:21;;;;;;;5.90;1.60;;;16.10;58.60;;;;;;5029891;28;20319;-65
2023/04/11 06:33:46;;;;;;;7.78;1.90;;;16.40;57.70;;;;;;5028598;28;20053;-64
2023/04/11 06:36:12;;;;;;;6.25;1.30;;;16.80;57.00;;;;;;5025630;28;20409;-63
2023/04/11 06:38:39;;;;;;;8.30;1.65;;;17.00;56.50;;;;;;5027262;28;20074;-63
2023/04/11 06:41:05;;;;;;;6.30;1.77;;;17.00;56.30;;;;;;5028048;28;21471;-63
2023/04/11 06:43:31;;;;;;;7.95;1.75;;;16.90;56.30;;;;;;5016783;28;20025;-64
2023/04/11 06:45:57;;;;;;;6.03;1.67;;;16.70;56.50;;;;;;5035137;28;20561;-64
2023/04/11 06:48:23;;;;;;;6.47;1.17;;;16.50;56.70;;;;;;5035306;28;20055;-65
2023/04/11 06:50:49;;;;;;;8.23;2.25;;;16.30;56.80;;;;;;5034170;28;20112;-68
2023/04/11 06:53:15;;;;;;;4.28;1.40;;;16.10;56.90;;;;;;5033415;28;20424;-62
2023/04/11 06:55:40;;;;;;;7.47;1.73;;;15.90;57.10;;;;;;5033953;28;20041;-62
2023/04/11 06:58:06;;;;;;;11.30;2.45;;;15.80;57.00;;;;;;5035392;28;20442;-64
2023/04/11 07:00:32;;;;;;;7.97;2.10;;;15.80;57.00;;;;;;5035347;28;20033;-64
2023/04/11 07:02:58;;;;;;;10.15;2.03;;;15.80;57.10;;;;;;5045536;28;20040;-63
2023/04/11 07:05:25;;;;;;;7.68;2.33;;;15.80;57.00;;;;;;5039211;28;20097;-64
2023/04/11 07:07:52;;;;;;;10.63;2.53;;;15.80;56.60;;;;;;5038799;28;20362;-64
2023/04/11 07:10:18;;;;;;;7.95;1.98;;;15.70;56.70;;;;;;5037878;28;20446;-61
2023/04/11 07:12:44;;;;;;;7.43;1.98;;;15.70;56.80;;;;;;5047079;28;20029;-62
2023/04/11 07:15:10;;;;;;;7.57;1.98;;;15.70;56.70;;;;;;5031818;28;20071;-64
2023/04/11 07:17:36;;;;;;;8.10;2.20;;;15.80;56.50;;;;;;5037728;28;20029;-61
2023/04/11 07:20:05;;;;;;;7.68;1.65;;;15.90;56.40;;;;;;5037185;28;20027;-62
2023/04/11 07:22:31;;;;;;;7.60;2.03;;;16.00;56.20;;;;;;5042990;28;20040;-62
2023/04/11 07:24:57;;;;;;;8.15;2.10;;;16.10;56.00;;;;;;5029392;28;20064;-61
2023/04/11 07:27:23;;;;;;;9.77;1.83;;;16.10;55.90;;;;;;5031223;28;20029;-62
2023/04/11 07:29:49;;;;;;;6.53;1.40;;;16.00;55.80;;;;;;5034090;28;20032;-61
2023/04/11 07:32:15;;;;;;;8.85;2.10;;;16.00;55.70;;;;;;5051126;28;20033;-61
2023/04/11 07:34:41;;;;;;;11.05;2.25;;;16.00;55.90;;;;;;5043781;28;20043;-61
2023/04/11 07:37:06;;;;;;;7.72;1.85;;;16.00;55.70;;;;;;5043485;28;20029;-60
2023/04/11 07:39:33;;;;;;;5.55;1.30;;;16.10;55.70;;;;;;5034341;28;20113;-61
2023/04/11 07:41:58;;;;;;;7.18;1.70;;;16.20;55.50;;;;;;5037443;28;20057;-61
2023/04/11 07:44:24;;;;;;;12.10;2.22;;;16.40;55.20;;;;;;5044088;28;20079;-61
2023/04/11 07:46:50;;;;;;;6.72;1.77;;;16.60;54.70;;;;;;5026716;28;20082;-61
2023/04/11 07:49:16;;;;;;;10.85;1.98;;;16.50;54.30;;;;;;5051120;28;20033;-61
2023/04/11 07:51:41;;;;;;;8.90;1.65;;;16.40;54.10;;;;;;5041461;28;20078;-61
2023/04/11 07:54:08;;;;;;;5.45;1.33;;;16.30;54.20;;;;;;5048160;28;20187;-61
2023/04/11 07:56:34;;;;;;;7.15;2.00;;;16.20;54.20;;;;;;5040159;28;20037;-62
2023/04/11 07:59:00;;;;;;;7.13;1.73;;;16.20;54.10;;;;;;5043247;28;20048;-61
2023/04/11 08:01:26;;;;;;;5.78;1.40;;;15.90;54.10;;;;;;5053429;28;20025;-61
2023/04/11 08:03:55;;;;;;;7.03;1.80;;;15.80;54.10;;;;;;5043835;28;20032;-61
2023/04/11 08:06:21;;;;;;;4.25;1.33;;;15.70;54.10;;;;;;5032083;28;20039;-60
2023/04/11 08:08:48;;;;;;;7.15;1.75;;;15.90;54.60;;;;;;5037329;28;20026;-61
2023/04/11 08:11:14;;;;;;;5.90;1.30;;;16.10;53.70;;;;;;5046264;28;20029;-61
2023/04/11 08:13:41;;;;;;;6.93;1.42;;;16.50;53.30;;;;;;5041296;28;20036;-61
2023/04/11 08:16:09;;;;;;;7.40;1.42;;;16.70;52.60;;;;;;5034453;28;20362;-61
2023/04/11 08:18:36;;;;;;;4.72;1.63;;;16.90;52.10;;;;;;5036157;28;20159;-62
2023/04/11 08:21:02;;;;;;;4.22;1.30;;;17.10;51.80;;;;;;5041392;28;20018;-61
2023/04/11 08:23:28;;;;;;;7.00;1.80;;;17.40;51.30;;;;;;5051449;28;20017;-61
2023/04/11 08:25:55;;;;;;;7.38;1.67;;;17.50;50.90;;;;;;5042856;28;20121;-61
2023/04/11 08:28:21;;;;;;;10.88;1.92;;;17.60;50.40;;;;;;5043980;28;20044;-61
2023/04/11 08:30:49;;;;;;;7.30;1.75;;;17.60;50.10;;;;;;5043699;28;20040;-61
2023/04/11 08:33:15;;;;;;;8.18;2.13;;;17.60;49.80;;;;;;5048941;28;20072;-61
2023/04/11 08:35:41;;;;;;;7.50;2.20;;;17.70;49.60;;;;;;5042156;28;20033;-61
2023/04/11 08:38:08;;;;;;;6.30;1.40;;;17.80;49.50;;;;;;5036948;28;20021;-63
2023/04/11 08:40:34;;;;;;;6.85;1.52;;;17.90;49.30;;;;;;5039850;28;20038;-62
2023/04/11 08:43:00;;;;;;;5.70;1.52;;;17.90;49.00;;;;;;5055204;28;20021;-61
2023/04/11 08:45:27;;;;;;;7.03;1.80;;;17.90;49.00;;;;;;5042666;28;20028;-61
2023/04/11 08:47:53;;;;;;;5.85;1.80;;;18.00;48.90;;;;;;5041302;28;20028;-61
2023/04/11 08:50:19;;;;;;;6.30;1.35;;;18.20;48.70;;;;;;5026586;28;20021;-61
2023/04/11 08:52:47;;;;;;;5.80;1.50;;;18.20;48.40;;;;;;5044799;28;20032;-62
2023/04/11 08:55:13;;;;;;;5.60;1.40;;;18.10;48.00;;;;;;5043074;28;20069;-61
2023/04/11 08:57:38;;;;;;;6.47;1.85;;;18.20;47.90;;;;;;5037567;28;20080;-62
2023/04/11 09:00:10;;;;;;;5.30;1.17;;;18.30;47.70;;;;;;5040552;28;20053;-60
2023/04/11 09:03:02;;;;;;;7.18;1.75;;;18.40;47.30;;;;;;5031685;28;20351;-61
2023/04/11 09:05:37;;;;;;;7.53;2.20;;;18.40;46.90;;;;;;5033021;28;21268;-61
2023/04/11 09:08:05;;;;;;;6.95;1.73;;;18.50;46.80;;;;;;5040505;28;20442;-61
2023/04/11 09:10:31;;;;;;;4.95;1.20;;;18.40;46.50;;;;;;5046880;28;20095;-61
2023/04/11 09:12:57;;;;;;;7.05;1.77;;;18.30;46.40;;;;;;5037531;28;20035;-62
2023/04/11 09:15:26;;;;;;;9.23;1.92;;;18.00;46.90;;;;;;5019509;28;20120;-62
2023/04/11 09:17:52;;;;;;;7.53;1.40;;;17.80;47.40;;;;;;5038312;28;20025;-61
2023/04/11 09:20:19;;;;;;;6.15;1.40;;;17.60;47.80;;;;;;5036250;28;20083;-61
2023/04/11 09:22:49;;;;;;;7.55;1.88;;;17.40;47.90;;;;;;5037137;28;20072;-61
2023/04/11 09:25:16;;;;;;;5.65;1.80;;;17.40;48.10;;;;;;5048374;28;20041;-61
2023/04/11 09:27:41;;;;;;;7.70;1.77;;;17.60;47.80;;;;;;5036848;28;20037;-61
2023/04/11 09:30:21;;;;;;;7.53;1.95;;;17.60;47.50;;;;;;5028881;28;20099;-62
2023/04/11 09:32:47;;;;;;;12.02;2.42;;;17.20;47.30;;;;;;5045401;28;20350;-62
2023/04/11 09:35:19;;;;;;;8.93;2.05;;;16.80;48.00;;;;;;5027859;28;20034;-61
2023/04/11 09:37:47;;;;;;;5.97;1.83;;;16.50;48.30;;;;;;5030433;28;20312;-62
2023/04/11 09:40:15;;;;;;;8.98;1.75;;;16.30;48.60;;;;;;5031935;28;20021;-62
2023/04/11 09:42:42;;;;;;;6.32;1.75;;;16.30;48.90;;;;;;5030982;28;20077;-62
2023/04/11 09:45:18;;;;;;;7.20;1.83;;;16.50;49.00;;;;;;5030932;28;20350;-61
2023/04/11 09:47:45;;;;;;;8.35;1.75;;;16.60;48.60;;;;;;5032681;28;20051;-62
2023/04/11 09:50:12;;;;;;;7.22;1.77;;;16.80;48.50;;;;;;5031379;28;20025;-62
2023/04/11 09:52:44;;;;;;;6.22;1.73;;;17.10;48.40;;;;;;5031330;28;20035;-62
2023/04/11 09:55:12;;;;;;;8.02;1.52;;;17.20;47.90;;;;;;5031934;28;20025;-62
2023/04/11 09:57:45;;;;;;;7.70;1.65;;;17.00;47.80;;;;;;5029931;28;20043;-62
2023/04/11 10:00:17;;;;;;;8.00;1.80;;;16.70;48.10;;;;;;5032016;28;20120;-61
2023/04/11 10:02:45;;;;;;;9.32;1.70;;;16.50;48.30;;;;;;5031033;28;20370;-61
2023/04/11 10:05:12;;;;;;;7.25;1.75;;;16.50;48.30;;;;;;5033447;28;20037;-61
2023/04/11 10:08:01;;;;;;;7.45;1.52;;;16.80;48.30;;;;;;5033826;28;20038;-62
2023/04/11 10:10:27;;;;;;;7.72;1.52;;;17.10;47.90;;;;;;5032829;28;20029;-61
2023/04/11 10:12:52;;;;;;;8.52;1.88;;;17.40;47.20;;;;;;5032728;28;20087;-62
2023/04/11 10:15:18;;;;;;;5.57;1.30;;;17.70;46.70;;;;;;5033928;28;20422;-62
2023/04/11 10:18:09;;;;;;;5.50;1.40;;;18.00;46.20;;;;;;5036817;28;20036;-62
2023/04/11 10:20:35;;;;;;;4.38;1.27;;;18.20;45.20;;;;;;5036337;28;20110;-62
2023/04/11 10:23:01;;;;;;;5.95;1.50;;;18.10;44.50;;;;;;5038173;28;20021;-62
2023/04/11 10:25:27;;;;;;;4.53;1.15;;;18.10;44.90;;;;;;5032576;28;20438;-62
2023/04/11 10:28:03;;;;;;;4.50;1.40;;;18.20;44.30;;;;;;5034512;28;20044;-62
2023/04/11 10:30:38;;;;;;;4.30;1.27;;;18.40;44.10;;;;;;5036970;28;20025;-63
2023/04/11 10:33:15;;;;;;;5.57;1.30;;;18.60;43.20;;;;;;5036164;28;20048;-63
2023/04/11 10:36:08;;;;;;;4.32;1.40;;;18.70;43.60;;;;;;5037558;28;20033;-62
2023/04/11 10:38:39;;;;;;;4.07;1.27;;;18.70;42.70;;;;;;5034490;28;20151;-63
2023/04/11 10:41:24;;;;;;;6.18;1.40;;;18.70;42.90;;;;;;5035596;28;20084;-62
2023/04/11 10:43:50;;;;;;;6.95;1.45;;;18.80;42.50;;;;;;5037195;28;20444;-63
2023/04/11 10:46:18;;;;;;;5.43;1.08;;;18.90;42.60;;;;;;5037105;28;20098;-62
2023/04/11 10:49:04;;;;;;;5.18;1.58;;;18.80;42.60;;;;;;5037093;28;20030;-62
2023/04/11 10:51:33;;;;;;;4.22;0.82;;;18.60;42.30;;;;;;5036440;28;20021;-63
2023/04/11 10:53:59;;;;;;;4.53;1.05;;;18.40;42.60;;;;;;5037115;28;20331;-62
2023/04/11 10:56:45;;;;;;;5.10;1.30;;;18.40;42.70;;;;;;5035946;28;20095;-63
2023/04/11 10:59:29;;;;;;;6.30;1.42;;;18.40;42.00;;;;;;5036293;28;20061;-62
2023/04/11 11:01:56;;;;;;;5.32;1.17;;;18.50;42.20;;;;;;5035479;28;20026;-63
2023/04/11 11:04:35;;;;;;;4.15;1.13;;;18.50;42.60;;;;;;5019461;28;20024;-62
2023/04/11 11:07:03;;;;;;;4.82;1.30;;;18.60;42.40;;;;;;5036899;28;20037;-62
2023/04/11 11:09:30;;;;;;;4.82;1.48;;;18.70;42.40;;;;;;5036616;28;20068;-62
2023/04/11 11:12:08;;;;;;;4.13;1.25;;;18.60;42.00;;;;;;5035608;28;20025;-62
2023/04/11 11:14:35;;;;;;;5.45;1.40;;;18.60;41.90;;;;;;5022459;28;20079;-63
2023/04/11 11:17:01;;;;;;;6.55;1.40;;;18.60;42.00;;;;;;5035964;28;20021;-62
2023/04/11 11:19:28;;;;;;;3.72;1.00;;;18.70;42.00;;;;;;5035041;28;20477;-63
2023/04/11 11:21:54;;;;;;;4.38;1.30;;;18.80;41.60;;;;;;5026046;28;20041;-62
2023/04/11 11:24:24;;;;;;;4.03;1.25;;;18.70;41.40;;;;;;5036629;28;20017;-61
2023/04/11 11:26:52;;;;;;;4.60;1.10;;;18.70;41.20;;;;;;5036280;28;20040;-61
2023/04/11 11:29:38;;;;;;;5.53;1.17;;;18.70;41.20;;;;;;5034361;28;20434;-62
2023/04/11 11:32:05;;;;;;;5.80;1.10;;;18.60;40.90;;;;;;5033388;28;20033;-61
2023/04/11 11:34:33;;;;;;;3.70;0.98;;;18.40;41.20;;;;;;5035070;28;21464;-62
2023/04/11 11:37:03;;;;;;;3.40;1.20;;;18.40;41.10;;;;;;5017634;28;20018;-61
2023/04/11 11:39:29;;;;;;;4.60;1.50;;;18.50;41.10;;;;;;5034652;28;20021;-62
2023/04/11 11:41:56;;;;;;;4.28;1.30;;;18.60;41.00;;;;;;5036429;28;20018;-62
2023/04/11 11:44:26;;;;;;;4.60;1.23;;;18.70;40.90;;;;;;5034784;28;20033;-62
2023/04/11 11:47:08;;;;;;;8.63;1.50;;;18.70;40.90;;;;;;5035219;28;20095;-62
2023/04/11 11:49:54;;;;;;;5.55;1.27;;;18.70;40.50;;;;;;5036264;28;20033;-61
2023/04/11 11:52:38;;;;;;;7.53;1.90;;;18.50;40.40;;;;;;5034270;28;20501;-62
2023/04/11 11:55:17;;;;;;;6.82;1.80;;;18.40;40.70;;;;;;5033566;28;20037;-62
2023/04/11 11:57:44;;;;;;;5.78;1.33;;;18.40;40.80;;;;;;5023897;28;20121;-62
2023/04/11 12:00:11;;;;;;;4.47;1.52;;;18.40;40.70;;;;;;5034784;28;20204;-62
2023/04/11 12:02:38;;;;;;;6.93;1.58;;;18.40;40.90;;;;;;5034499;28;20030;-62
2023/04/11 12:05:05;;;;;;;6.78;1.50;;;18.50;41.00;;;;;;5035024;28;20030;-62
2023/04/11 12:07:35;;;;;;;4.03;1.20;;;18.40;40.90;;;;;;5031735;28;20032;-62
2023/04/11 12:10:10;;;;;;;6.78;1.40;;;18.40;41.10;;;;;;5036660;28;20041;-62
2023/04/11 12:12:43;;;;;;;5.00;1.10;;;18.20;40.90;;;;;;5042994;28;20037;-62
2023/04/11 12:15:12;;;;;;;6.90;1.25;;;18.10;41.10;;;;;;5054361;28;20025;-63
2023/04/11 12:17:39;;;;;;;6.90;1.80;;;18.10;41.40;;;;;;5040790;28;20056;-62
2023/04/11 12:20:06;;;;;;;6.78;1.48;;;18.10;41.40;;;;;;5043424;28;20402;-62
2023/04/11 12:22:32;;;;;;;5.80;1.40;;;18.10;41.40;;;;;;5039132;28;20029;-62
2023/04/11 12:25:09;;;;;;;5.20;1.30;;;18.00;41.30;;;;;;5052692;28;20033;-62
2023/04/11 12:27:42;;;;;;;6.38;1.58;;;17.80;41.50;;;;;;5051214;28;20055;-62
2023/04/11 12:30:10;;;;;;;4.38;1.20;;;17.80;41.80;;;;;;5037237;28;20025;-62
2023/04/11 12:32:36;;;;;;;5.68;1.35;;;17.80;41.90;;;;;;5043956;28;20033;-62
2023/04/11 12:35:04;;;;;;;7.57;2.00;;;17.60;41.70;;;;;;5046687;28;20025;-62
2023/04/11 12:37:30;;;;;;;5.05;1.42;;;17.50;42.00;;;;;;5019455;28;20030;-62
2023/04/11 12:39:56;;;;;;;4.38;1.60;;;17.40;42.00;;;;;;5025786;28;20034;-62
2023/04/11 12:42:22;;;;;;;5.28;1.27;;;17.40;42.00;;;;;;5033616;28;20029;-62
2023/04/11 12:44:49;;;;;;;7.18;1.55;;;17.30;42.00;;;;;;5035479;28;20029;-62
2023/04/11 12:47:16;;;;;;;4.78;1.20;;;17.30;41.80;;;;;;5035050;28;20068;-62
2023/04/11 12:49:42;;;;;;;5.82;1.30;;;17.20;41.70;;;;;;5032881;28;20037;-62